sensor_id;sensor_type;location;lat;lon;timestamp;pressure;altitude;pressure_sealevel;temperature;humidity
19150;BME280;9707;49.158;8.632;2023-03-14T00:01:10;98652.50;;;20.69;37.08
19150;BME280;9707;49.158;8.632;2023-03-14T00:03:38;98656.22;;;20.68;37.37
19150;BME280;9707;49.158;8.632;2023-03-14T00:06:04;98649.13;;;20.67;37.36
19150;BME280;9707;49.158;8.632;2023-03-14T00:08:30;98647.41;;;20.66;37.35
19150;BME280;9707;49.158;8.632;2023-03-14T00:10:55;98650.13;;;20.66;37.41
19150;BME280;9707;49.158;8.632;2023-03-14T00:13:22;98657.72;;;20.62;37.38
19150;BME280;9707;49.158;8.632;2023-03-14T00:15:47;98666.69;;;20.63;37.47
19150;BME280;9707;49.158;8.632;2023-03-14T00:18:15;98650.63;;;20.61;37.26
19150;BME280;9707;49.158;8.632;2023-03-14T00:20:40;98655.16;;;20.61;37.51
19150;BME280;9707;49.158;8.632;2023-03-14T00:23:06;98650.63;;;20.61;37.47
19150;BME280;9707;49.158;8.632;2023-03-14T00:25:31;98646.06;;;20.62;37.54
19150;BME280;9707;49.158;8.632;2023-03-14T00:27:56;98646.06;;;20.62;37.44
19150;BME280;9707;49.158;8.632;2023-03-14T00:30:21;98644.03;;;20.64;37.49
19150;BME280;9707;49.158;8.632;2023-03-14T00:32:47;98644.03;;;20.64;37.35
19150;BME280;9707;49.158;8.632;2023-03-14T00:35:12;98647.75;;;20.63;37.47
19150;BME280;9707;49.158;8.632;2023-03-14T00:37:38;98648.59;;;20.63;37.40
19150;BME280;9707;49.158;8.632;2023-03-14T00:40:03;98653.00;;;20.64;37.55
19150;BME280;9707;49.158;8.632;2023-03-14T00:42:31;98652.16;;;20.64;37.53
19150;BME280;9707;49.158;8.632;2023-03-14T00:44:57;98656.53;;;20.65;37.50
19150;BME280;9707;49.158;8.632;2023-03-14T00:47:22;98650.31;;;20.64;37.60
19150;BME280;9707;49.158;8.632;2023-03-14T00:49:47;98646.75;;;20.64;37.64
19150;BME280;9707;49.158;8.632;2023-03-14T00:52:13;98649.44;;;20.64;37.75
19150;BME280;9707;49.158;8.632;2023-03-14T00:54:38;98651.13;;;20.65;37.81
19150;BME280;9707;49.158;8.632;2023-03-14T00:57:03;98664.50;;;20.66;37.52
19150;BME280;9707;49.158;8.632;2023-03-14T00:59:28;98652.81;;;20.66;37.44
19150;BME280;9707;49.158;8.632;2023-03-14T01:01:54;98665.38;;;20.67;37.42
19150;BME280;9707;49.158;8.632;2023-03-14T01:04:19;98667.06;;;20.68;37.46
19150;BME280;9707;49.158;8.632;2023-03-14T01:06:44;98686.81;;;20.68;37.55
19150;BME280;9707;49.158;8.632;2023-03-14T01:09:10;98674.16;;;20.69;37.55
19150;BME280;9707;49.158;8.632;2023-03-14T01:11:35;98676.00;;;20.68;37.67
19150;BME280;9707;49.158;8.632;2023-03-14T01:14:02;98674.16;;;20.69;37.48
19150;BME280;9707;49.158;8.632;2023-03-14T01:16:30;98667.06;;;20.68;37.45
19150;BME280;9707;49.158;8.632;2023-03-14T01:18:55;98657.41;;;20.65;37.50
19150;BME280;9707;49.158;8.632;2023-03-14T01:21:22;98645.72;;;20.65;37.54
19150;BME280;9707;49.158;8.632;2023-03-14T01:23:48;98639.50;;;20.64;37.52
19150;BME280;9707;49.158;8.632;2023-03-14T01:26:16;98650.47;;;20.63;37.46
19150;BME280;9707;49.158;8.632;2023-03-14T01:28:44;98649.59;;;20.62;37.65
19150;BME280;9707;49.158;8.632;2023-03-14T01:31:10;98640.66;;;20.62;37.52
19150;BME280;9707;49.158;8.632;2023-03-14T01:33:36;98629.13;;;20.60;37.66
19150;BME280;9707;49.158;8.632;2023-03-14T01:36:01;98632.88;;;20.59;37.68
19150;BME280;9707;49.158;8.632;2023-03-14T01:38:30;98624.75;;;20.59;37.69
19150;BME280;9707;49.158;8.632;2023-03-14T01:40:56;98624.91;;;20.57;37.73
19150;BME280;9707;49.158;8.632;2023-03-14T01:43:21;98624.75;;;20.59;37.78
19150;BME280;9707;49.158;8.632;2023-03-14T01:48:47;98605.47;;;20.54;37.68
19150;BME280;9707;49.158;8.632;2023-03-14T01:52:02;98580.44;;;20.52;37.70
19150;BME280;9707;49.158;8.632;2023-03-14T01:54:14;98594.94;;;20.51;37.87
19150;BME280;9707;49.158;8.632;2023-03-14T01:56:43;98592.44;;;20.49;37.71
19150;BME280;9707;49.158;8.632;2023-03-14T01:59:11;98571.63;;;20.50;37.94
19150;BME280;9707;49.158;8.632;2023-03-14T02:01:38;98568.94;;;20.50;37.99
19150;BME280;9707;49.158;8.632;2023-03-14T02:04:07;98570.63;;;20.51;38.47
19150;BME280;9707;49.158;8.632;2023-03-14T02:06:42;98560.81;;;20.50;38.48
19150;BME280;9707;49.158;8.632;2023-03-14T02:09:09;98560.81;;;20.50;38.32
19150;BME280;9707;49.158;8.632;2023-03-14T02:11:35;98567.91;;;20.51;38.73
19150;BME280;9707;49.158;8.632;2023-03-14T02:14:03;98562.50;;;20.51;38.59
19150;BME280;9707;49.158;8.632;2023-03-14T02:16:30;98561.50;;;20.52;38.65
19150;BME280;9707;49.158;8.632;2023-03-14T02:18:55;98559.78;;;20.51;38.64
19150;BME280;9707;49.158;8.632;2023-03-14T02:21:41;98559.97;;;20.49;38.75
19150;BME280;9707;49.158;8.632;2023-03-14T02:27:15;98553.38;;;20.44;38.85
19150;BME280;9707;49.158;8.632;2023-03-14T02:30:12;98541.88;;;20.42;38.86
19150;BME280;9707;49.158;8.632;2023-03-14T02:32:41;98522.25;;;20.40;38.65
19150;BME280;9707;49.158;8.632;2023-03-14T02:35:10;98506.88;;;20.40;38.74
19150;BME280;9707;49.158;8.632;2023-03-14T02:37:43;98521.59;;;20.38;38.68
19150;BME280;9707;49.158;8.632;2023-03-14T02:40:11;98528.00;;;20.37;38.72
19150;BME280;9707;49.158;8.632;2023-03-14T02:42:36;98526.31;;;20.36;38.74
19150;BME280;9707;49.158;8.632;2023-03-14T02:47:30;98520.06;;;20.35;38.64
19150;BME280;9707;49.158;8.632;2023-03-14T02:50:07;98517.50;;;20.34;38.39
19150;BME280;9707;49.158;8.632;2023-03-14T02:52:33;98509.56;;;20.32;38.30
19150;BME280;9707;49.158;8.632;2023-03-14T02:54:58;98532.38;;;20.30;38.20
19150;BME280;9707;49.158;8.632;2023-03-14T02:57:23;98525.28;;;20.29;38.30
19150;BME280;9707;49.158;8.632;2023-03-14T02:59:49;98512.78;;;20.28;38.31
19150;BME280;9707;49.158;8.632;2023-03-14T03:02:14;98518.19;;;20.28;38.20
19150;BME280;9707;49.158;8.632;2023-03-14T03:04:39;98509.41;;;20.26;38.03
19150;BME280;9707;49.158;8.632;2023-03-14T03:07:04;98511.41;;;20.24;38.02
19150;BME280;9707;49.158;8.632;2023-03-14T03:09:30;98504.31;;;20.23;37.98
19150;BME280;9707;49.158;8.632;2023-03-14T03:11:55;98492.63;;;20.22;38.27
19150;BME280;9707;49.158;8.632;2023-03-14T03:14:20;98496.34;;;20.21;37.98
19150;BME280;9707;49.158;8.632;2023-03-14T03:16:46;98490.13;;;20.21;38.02
19150;BME280;9707;49.158;8.632;2023-03-14T03:19:11;98482.16;;;20.19;37.90
19150;BME280;9707;49.158;8.632;2023-03-14T03:21:38;98483.00;;;20.20;38.00
19150;BME280;9707;49.158;8.632;2023-03-14T03:24:04;98479.63;;;20.18;37.79
19150;BME280;9707;49.158;8.632;2023-03-14T03:26:29;98479.63;;;20.18;37.76
19150;BME280;9707;49.158;8.632;2023-03-14T03:28:54;98486.72;;;20.19;37.75
19150;BME280;9707;49.158;8.632;2023-03-14T03:31:20;98469.66;;;20.18;37.84
19150;BME280;9707;49.158;8.632;2023-03-14T03:33:45;98462.38;;;20.19;37.76
19150;BME280;9707;49.158;8.632;2023-03-14T03:36:10;98452.44;;;20.19;37.63
19150;BME280;9707;49.158;8.632;2023-03-14T03:38:36;98460.53;;;20.19;37.35
19150;BME280;9707;49.158;8.632;2023-03-14T03:41:05;98449.72;;;20.19;37.34
19150;BME280;9707;49.158;8.632;2023-03-14T03:43:31;98448.03;;;20.18;37.14
19150;BME280;9707;49.158;8.632;2023-03-14T03:45:57;98447.19;;;20.18;37.25
19150;BME280;9707;49.158;8.632;2023-03-14T03:48:22;98446.31;;;20.17;37.30
19150;BME280;9707;49.158;8.632;2023-03-14T03:50:47;98440.09;;;20.17;37.14
19150;BME280;9707;49.158;8.632;2023-03-14T03:53:13;98435.72;;;20.16;36.96
19150;BME280;9707;49.158;8.632;2023-03-14T03:55:41;98431.28;;;20.15;36.84
19150;BME280;9707;49.158;8.632;2023-03-14T03:58:07;98440.41;;;20.14;37.02
19150;BME280;9707;49.158;8.632;2023-03-14T04:00:32;98435.88;;;20.14;36.96
19150;BME280;9707;49.158;8.632;2023-03-14T04:02:58;98429.59;;;20.14;36.69
19150;BME280;9707;49.158;8.632;2023-03-14T04:05:24;98424.34;;;20.12;36.53
19150;BME280;9707;49.158;8.632;2023-03-14T04:07:49;98427.06;;;20.12;36.30
19150;BME280;9707;49.158;8.632;2023-03-14T04:10:15;98430.94;;;20.10;36.50
19150;BME280;9707;49.158;8.632;2023-03-14T04:12:40;98424.72;;;20.09;36.47
19150;BME280;9707;49.158;8.632;2023-03-14T04:15:06;98427.41;;;20.09;36.23
19150;BME280;9707;49.158;8.632;2023-03-14T04:17:31;98422.84;;;20.10;36.23
19150;BME280;9707;49.158;8.632;2023-03-14T04:19:57;98409.31;;;20.10;36.15
19150;BME280;9707;49.158;8.632;2023-03-14T04:22:22;98406.63;;;20.10;36.14
19150;BME280;9707;49.158;8.632;2023-03-14T04:24:47;98408.34;;;20.11;36.14
19150;BME280;9707;49.158;8.632;2023-03-14T04:27:12;98409.31;;;20.10;35.91
19150;BME280;9707;49.158;8.632;2023-03-14T04:29:39;98407.63;;;20.09;35.68
19150;BME280;9707;49.158;8.632;2023-03-14T04:32:05;98408.66;;;20.08;35.85
19150;BME280;9707;49.158;8.632;2023-03-14T04:34:30;98404.09;;;20.08;35.44
19150;BME280;9707;49.158;8.632;2023-03-14T04:36:55;98408.66;;;20.08;35.36
19150;BME280;9707;49.158;8.632;2023-03-14T04:39:20;98400.66;;;20.06;35.00
19150;BME280;9707;49.158;8.632;2023-03-14T04:41:46;98390.22;;;20.03;35.14
19150;BME280;9707;49.158;8.632;2023-03-14T04:44:11;98403.88;;;20.02;35.49
19150;BME280;9707;49.158;8.632;2023-03-14T04:46:36;98389.34;;;20.03;35.50
19150;BME280;9707;49.158;8.632;2023-03-14T04:49:02;98391.91;;;20.04;35.09
19150;BME280;9707;49.158;8.632;2023-03-14T04:51:27;98378.38;;;20.04;35.15
19150;BME280;9707;49.158;8.632;2023-03-14T04:53:53;98374.81;;;20.04;35.18
19150;BME280;9707;49.158;8.632;2023-03-14T04:56:19;98369.41;;;20.04;35.19
19150;BME280;9707;49.158;8.632;2023-03-14T04:58:44;98373.13;;;20.03;35.10
19150;BME280;9707;49.158;8.632;2023-03-14T05:01:10;98370.44;;;20.03;35.09
19150;BME280;9707;49.158;8.632;2023-03-14T05:03:35;98367.91;;;20.01;35.24
19150;BME280;9707;49.158;8.632;2023-03-14T05:06:04;98362.50;;;20.01;35.27
19150;BME280;9707;49.158;8.632;2023-03-14T05:08:29;98349.84;;;20.02;35.03
19150;BME280;9707;49.158;8.632;2023-03-14T05:10:56;98362.31;;;20.03;34.96
19150;BME280;9707;49.158;8.632;2023-03-14T05:13:22;98356.06;;;20.02;34.92
19150;BME280;9707;49.158;8.632;2023-03-14T05:15:47;98367.06;;;20.01;35.17
19150;BME280;9707;49.158;8.632;2023-03-14T05:18:13;98371.47;;;20.02;34.72
19150;BME280;9707;49.158;8.632;2023-03-14T05:20:38;98369.78;;;20.01;34.74
19150;BME280;9707;49.158;8.632;2023-03-14T05:23:04;98369.06;;;19.99;34.80
19150;BME280;9707;49.158;8.632;2023-03-14T05:25:29;98370.09;;;19.98;34.85
19150;BME280;9707;49.158;8.632;2023-03-14T05:27:55;98371.78;;;19.99;35.02
19150;BME280;9707;49.158;8.632;2023-03-14T05:30:21;98364.69;;;19.98;35.04
19150;BME280;9707;49.158;8.632;2023-03-14T05:32:47;98381.56;;;20.00;35.07
19150;BME280;9707;49.158;8.632;2023-03-14T05:35:12;98373.47;;;20.00;35.24
19150;BME280;9707;49.158;8.632;2023-03-14T05:37:37;98372.63;;;19.99;35.20
19150;BME280;9707;49.158;8.632;2023-03-14T05:40:03;98368.06;;;20.00;35.08
19150;BME280;9707;49.158;8.632;2023-03-14T05:42:31;98371.78;;;19.99;34.97
19150;BME280;9707;49.158;8.632;2023-03-14T05:44:56;98367.56;;;19.96;34.93
19150;BME280;9707;49.158;8.632;2023-03-14T05:47:22;98356.91;;;19.95;35.16
19150;BME280;9707;49.158;8.632;2023-03-14T05:49:47;98354.38;;;19.93;35.19
19150;BME280;9707;49.158;8.632;2023-03-14T05:52:13;98368.72;;;19.94;35.19
19150;BME280;9707;49.158;8.632;2023-03-14T05:54:39;98337.31;;;19.93;35.05
19150;BME280;9707;49.158;8.632;2023-03-14T05:57:04;98347.09;;;19.94;35.10
19150;BME280;9707;49.158;8.632;2023-03-14T05:59:31;98336.31;;;19.94;34.97
19150;BME280;9707;49.158;8.632;2023-03-14T06:01:56;98336.31;;;19.94;35.21
19150;BME280;9707;49.158;8.632;2023-03-14T06:04:22;98338.00;;;19.95;35.23
19150;BME280;9707;49.158;8.632;2023-03-14T06:06:47;98345.09;;;19.96;35.00
19150;BME280;9707;49.158;8.632;2023-03-14T06:09:12;98346.78;;;19.97;34.82
19150;BME280;9707;49.158;8.632;2023-03-14T06:11:38;98340.69;;;19.95;34.91
19150;BME280;9707;49.158;8.632;2023-03-14T06:14:03;98340.88;;;19.93;34.72
19150;BME280;9707;49.158;8.632;2023-03-14T06:16:28;98337.31;;;19.93;35.00
19150;BME280;9707;49.158;8.632;2023-03-14T06:18:54;98336.31;;;19.94;34.96
19150;BME280;9707;49.158;8.632;2023-03-14T06:21:19;98349.66;;;19.95;35.33
19150;BME280;9707;49.158;8.632;2023-03-14T06:23:45;98343.22;;;19.96;35.16
19150;BME280;9707;49.158;8.632;2023-03-14T06:26:10;98352.84;;;19.99;35.33
19150;BME280;9707;49.158;8.632;2023-03-14T06:28:37;98342.75;;;20.01;35.17
19150;BME280;9707;49.158;8.632;2023-03-14T06:31:02;98337.16;;;20.02;35.17
19150;BME280;9707;49.158;8.632;2023-03-14T06:33:28;98347.81;;;20.04;35.30
19150;BME280;9707;49.158;8.632;2023-03-14T06:35:54;98345.78;;;20.06;35.49
19150;BME280;9707;49.158;8.632;2023-03-14T06:38:19;98348.00;;;20.10;35.50
19150;BME280;9707;49.158;8.632;2023-03-14T06:40:44;98345.97;;;20.12;35.31
19150;BME280;9707;49.158;8.632;2023-03-14T06:43:10;98346.84;;;20.13;35.18
19150;BME280;9707;49.158;8.632;2023-03-14T06:45:35;98356.47;;;20.15;35.12
19150;BME280;9707;49.158;8.632;2023-03-14T06:48:01;98353.59;;;20.17;35.21
19150;BME280;9707;49.158;8.632;2023-03-14T06:50:26;98362.38;;;20.19;35.20
19150;BME280;9707;49.158;8.632;2023-03-14T06:52:51;98359.50;;;20.20;35.25
19150;BME280;9707;49.158;8.632;2023-03-14T06:55:17;98359.19;;;20.23;35.27
19150;BME280;9707;49.158;8.632;2023-03-14T06:57:42;98369.81;;;20.25;35.08
19150;BME280;9707;49.158;8.632;2023-03-14T07:00:09;98356.28;;;20.25;34.84
19150;BME280;9707;49.158;8.632;2023-03-14T07:02:35;98358.31;;;20.23;34.81
19150;BME280;9707;49.158;8.632;2023-03-14T07:05:01;98361.03;;;20.23;34.80
19150;BME280;9707;49.158;8.632;2023-03-14T07:07:27;98370.00;;;20.23;34.81
19150;BME280;9707;49.158;8.632;2023-03-14T07:09:52;98366.44;;;20.23;34.86
19150;BME280;9707;49.158;8.632;2023-03-14T07:12:17;98374.53;;;20.23;34.83
19150;BME280;9707;49.158;8.632;2023-03-14T07:14:43;98370.97;;;20.22;35.02
19150;BME280;9707;49.158;8.632;2023-03-14T07:17:08;98377.25;;;20.23;34.98
19150;BME280;9707;49.158;8.632;2023-03-14T07:19:33;98367.47;;;20.22;35.00
19150;BME280;9707;49.158;8.632;2023-03-14T07:21:59;98371.19;;;20.21;34.85
19150;BME280;9707;49.158;8.632;2023-03-14T07:24:24;98376.59;;;20.21;34.67
19150;BME280;9707;49.158;8.632;2023-03-14T07:26:49;98366.75;;;20.20;34.68
19150;BME280;9707;49.158;8.632;2023-03-14T07:29:15;98369.47;;;20.20;35.26
19150;BME280;9707;49.158;8.632;2023-03-14T07:31:40;98373.88;;;20.21;35.22
19150;BME280;9707;49.158;8.632;2023-03-14T07:34:05;98379.94;;;20.23;34.91
19150;BME280;9707;49.158;8.632;2023-03-14T07:36:31;98383.31;;;20.25;34.88
19150;BME280;9707;49.158;8.632;2023-03-14T07:38:57;98381.47;;;20.25;35.01
19150;BME280;9707;49.158;8.632;2023-03-14T07:41:22;98385.03;;;20.26;35.06
19150;BME280;9707;49.158;8.632;2023-03-14T07:43:48;98382.13;;;20.27;34.99
19150;BME280;9707;49.158;8.632;2023-03-14T07:46:13;98386.72;;;20.27;34.80
19150;BME280;9707;49.158;8.632;2023-03-14T07:48:40;98383.00;;;20.28;35.03
19150;BME280;9707;49.158;8.632;2023-03-14T07:51:05;98381.97;;;20.29;34.85
19150;BME280;9707;49.158;8.632;2023-03-14T07:53:31;98390.09;;;20.29;34.80
19150;BME280;9707;49.158;8.632;2023-03-14T07:55:56;98386.38;;;20.30;34.86
19150;BME280;9707;49.158;8.632;2023-03-14T07:58:22;98391.78;;;20.30;34.86
19150;BME280;9707;49.158;8.632;2023-03-14T08:00:48;98382.69;;;20.31;34.66
19150;BME280;9707;49.158;8.632;2023-03-14T08:03:13;98377.25;;;20.31;34.59
19150;BME280;9707;49.158;8.632;2023-03-14T08:05:39;98385.38;;;20.31;34.59
19150;BME280;9707;49.158;8.632;2023-03-14T08:08:05;98382.69;;;20.31;34.52
19150;BME280;9707;49.158;8.632;2023-03-14T08:10:31;98373.53;;;20.32;35.04
19150;BME280;9707;49.158;8.632;2023-03-14T08:12:57;98382.31;;;20.34;34.76
19150;BME280;9707;49.158;8.632;2023-03-14T08:15:24;98373.03;;;20.36;35.12
19150;BME280;9707;49.158;8.632;2023-03-14T08:17:50;98382.00;;;20.37;34.97
19150;BME280;9707;49.158;8.632;2023-03-14T08:20:16;98394.50;;;20.38;35.14
19150;BME280;9707;49.158;8.632;2023-03-14T08:22:42;98387.25;;;20.38;35.03
19150;BME280;9707;49.158;8.632;2023-03-14T08:25:07;98393.63;;;20.37;34.90
19150;BME280;9707;49.158;8.632;2023-03-14T08:27:32;98381.13;;;20.36;35.14
19150;BME280;9707;49.158;8.632;2023-03-14T08:29:58;98396.34;;;20.37;34.92
19150;BME280;9707;49.158;8.632;2023-03-14T08:32:23;98400.56;;;20.40;35.13
19150;BME280;9707;49.158;8.632;2023-03-14T08:34:49;98392.44;;;20.40;35.18
19150;BME280;9707;49.158;8.632;2023-03-14T08:37:14;98400.41;;;20.41;35.27
19150;BME280;9707;49.158;8.632;2023-03-14T08:39:40;98398.56;;;20.42;35.34
19150;BME280;9707;49.158;8.632;2023-03-14T08:42:05;98417.13;;;20.45;35.55
19150;BME280;9707;49.158;8.632;2023-03-14T08:44:30;98399.22;;;20.44;35.33
19150;BME280;9707;49.158;8.632;2023-03-14T08:46:55;98406.31;;;20.45;35.25
19150;BME280;9707;49.158;8.632;2023-03-14T08:49:21;98415.13;;;20.47;35.41
19150;BME280;9707;49.158;8.632;2023-03-14T08:51:46;98411.41;;;20.48;35.50
19150;BME280;9707;49.158;8.632;2023-03-14T08:54:12;98413.09;;;20.49;35.74
19150;BME280;9707;49.158;8.632;2023-03-14T08:56:37;98406.50;;;20.51;35.56
19150;BME280;9707;49.158;8.632;2023-03-14T08:59:03;98420.00;;;20.51;35.85
19150;BME280;9707;49.158;8.632;2023-03-14T09:01:29;98426.44;;;20.50;35.75
19150;BME280;9707;49.158;8.632;2023-03-14T09:03:55;98413.44;;;20.46;35.58
19150;BME280;9707;49.158;8.632;2023-03-14T09:06:20;98414.63;;;20.43;35.80
19150;BME280;9707;49.158;8.632;2023-03-14T09:08:45;98417.13;;;20.45;35.78
19150;BME280;9707;49.158;8.632;2023-03-14T09:11:11;98422.22;;;20.48;35.98
19150;BME280;9707;49.158;8.632;2023-03-14T09:13:40;98421.84;;;20.51;35.53
19150;BME280;9707;49.158;8.632;2023-03-14T09:16:06;98425.41;;;20.51;35.54
19150;BME280;9707;49.158;8.632;2023-03-14T09:18:32;98421.53;;;20.54;35.43
19150;BME280;9707;49.158;8.632;2023-03-14T09:20:59;98420.88;;;20.52;35.60
19150;BME280;9707;49.158;8.632;2023-03-14T09:23:24;98441.13;;;20.56;35.56
19150;BME280;9707;49.158;8.632;2023-03-14T09:25:57;98433.88;;;20.56;35.68
19150;BME280;9707;49.158;8.632;2023-03-14T09:28:23;98440.97;;;20.57;35.58
19150;BME280;9707;49.158;8.632;2023-03-14T09:30:48;98435.41;;;20.59;35.64
19150;BME280;9707;49.158;8.632;2023-03-14T09:33:15;98433.56;;;20.59;35.57
19150;BME280;9707;49.158;8.632;2023-03-14T09:35:40;98437.94;;;20.60;35.71
19150;BME280;9707;49.158;8.632;2023-03-14T09:38:05;98441.31;;;20.62;35.72
19150;BME280;9707;49.158;8.632;2023-03-14T09:40:34;98439.09;;;20.66;35.35
19150;BME280;9707;49.158;8.632;2023-03-14T09:43:00;98446.22;;;20.67;35.13
19150;BME280;9707;49.158;8.632;2023-03-14T09:45:28;98452.31;;;20.69;35.35
19150;BME280;9707;49.158;8.632;2023-03-14T09:47:55;98449.59;;;20.69;35.08
19150;BME280;9707;49.158;8.632;2023-03-14T09:50:23;98451.13;;;20.71;35.28
19150;BME280;9707;49.158;8.632;2023-03-14T09:52:52;98449.09;;;20.73;35.11
19150;BME280;9707;49.158;8.632;2023-03-14T09:55:22;98461.63;;;20.74;35.10
19150;BME280;9707;49.158;8.632;2023-03-14T09:57:49;98455.19;;;20.75;35.03
19150;BME280;9707;49.158;8.632;2023-03-14T10:00:23;98455.34;;;20.74;35.01
19150;BME280;9707;49.158;8.632;2023-03-14T10:05:29;98460.75;;;20.74;35.11
19150;BME280;9707;49.158;8.632;2023-03-14T10:07:55;98469.53;;;20.76;35.37
19150;BME280;9707;49.158;8.632;2023-03-14T10:10:22;98465.00;;;20.76;35.28
19150;BME280;9707;49.158;8.632;2023-03-14T10:13:14;98464.81;;;20.78;34.92
19150;BME280;9707;49.158;8.632;2023-03-14T10:15:40;98481.06;;;20.78;35.00
19150;BME280;9707;49.158;8.632;2023-03-14T10:18:11;98472.94;;;20.78;35.05
19150;BME280;9707;49.158;8.632;2023-03-14T10:20:42;98468.34;;;20.78;35.18
19150;BME280;9707;49.158;8.632;2023-03-14T10:25:44;98464.66;;;20.79;35.46
19150;BME280;9707;49.158;8.632;2023-03-14T10:28:26;98470.91;;;20.80;35.55
19150;BME280;9707;49.158;8.632;2023-03-14T10:30:51;98470.91;;;20.80;35.77
19150;BME280;9707;49.158;8.632;2023-03-14T10:33:23;98478.84;;;20.81;35.87
19150;BME280;9707;49.158;8.632;2023-03-14T10:38:29;98486.13;;;20.81;36.20
19150;BME280;9707;49.158;8.632;2023-03-14T10:40:55;98477.34;;;20.79;36.43
19150;BME280;9707;49.158;8.632;2023-03-14T10:43:25;98480.91;;;20.79;36.64
19150;BME280;9707;49.158;8.632;2023-03-14T10:45:55;98485.44;;;20.79;37.19
19150;BME280;9707;49.158;8.632;2023-03-14T10:51:45;98483.94;;;20.76;37.56
19150;BME280;9707;49.158;8.632;2023-03-14T10:54:20;98488.47;;;20.76;37.72
19150;BME280;9707;49.158;8.632;2023-03-14T10:56:56;98489.50;;;20.75;37.97
19150;BME280;9707;49.158;8.632;2023-03-14T10:59:22;98487.66;;;20.75;38.03
19150;BME280;9707;49.158;8.632;2023-03-14T11:02:10;98495.59;;;20.77;38.11
19150;BME280;9707;49.158;8.632;2023-03-14T11:10:38;98497.97;;;20.72;38.06
19150;BME280;9707;49.158;8.632;2023-03-14T11:13:27;98497.28;;;20.70;38.10
19150;BME280;9707;49.158;8.632;2023-03-14T11:19:01;98505.06;;;20.65;38.76
19150;BME280;9707;49.158;8.632;2023-03-14T11:24:48;98510.97;;;20.60;39.20
19150;BME280;9707;49.158;8.632;2023-03-14T11:27:21;98512.81;;;20.60;39.46
19150;BME280;9707;49.158;8.632;2023-03-14T11:34:57;98529.56;;;20.63;39.45
19150;BME280;9707;49.158;8.632;2023-03-14T11:37:29;98537.69;;;20.63;39.44
19150;BME280;9707;49.158;8.632;2023-03-14T11:40:13;98535.81;;;20.64;39.62
19150;BME280;9707;49.158;8.632;2023-03-14T11:42:43;98550.38;;;20.63;39.28
19150;BME280;9707;49.158;8.632;2023-03-14T11:45:18;98556.59;;;20.63;39.17
19150;BME280;9707;49.158;8.632;2023-03-14T11:47:58;98564.91;;;20.62;39.22
19150;BME280;9707;49.158;8.632;2023-03-14T11:50:27;98564.38;;;20.58;39.28
19150;BME280;9707;49.158;8.632;2023-03-14T11:53:02;98601.72;;;20.55;39.55
19150;BME280;9707;49.158;8.632;2023-03-14T11:55:33;98606.31;;;20.54;38.85
19150;BME280;9707;49.158;8.632;2023-03-14T11:58:33;98627.41;;;20.51;39.08
19150;BME280;9707;49.158;8.632;2023-03-14T12:01:03;98639.59;;;20.47;38.03
19150;BME280;9707;49.158;8.632;2023-03-14T12:03:41;98650.06;;;20.42;37.27
19150;BME280;9707;49.158;8.632;2023-03-14T12:08:53;98681.41;;;20.27;36.24
19150;BME280;9707;49.158;8.632;2023-03-14T12:11:50;98698.97;;;20.23;36.34
19150;BME280;9707;49.158;8.632;2023-03-14T12:16:45;98721.91;;;20.19;35.99
19150;BME280;9707;49.158;8.632;2023-03-14T12:21:59;98755.34;;;20.18;35.50
19150;BME280;9707;49.158;8.632;2023-03-14T12:24:29;98758.56;;;20.13;34.78
19150;BME280;9707;49.158;8.632;2023-03-14T12:26:57;98766.28;;;20.08;34.21
19150;BME280;9707;49.158;8.632;2023-03-14T12:29:23;98780.56;;;20.01;33.72
19150;BME280;9707;49.158;8.632;2023-03-14T12:32:06;98773.38;;;19.92;34.37
19150;BME280;9707;49.158;8.632;2023-03-14T12:34:43;98782.78;;;19.88;33.97
19150;BME280;9707;49.158;8.632;2023-03-14T12:37:14;98777.16;;;19.81;33.49
19150;BME280;9707;49.158;8.632;2023-03-14T12:42:40;98815.75;;;19.74;32.91
19150;BME280;9707;49.158;8.632;2023-03-14T12:48:33;98821.50;;;19.71;33.04
19150;BME280;9707;49.158;8.632;2023-03-14T12:50:53;98820.47;;;19.72;32.79
19150;BME280;9707;49.158;8.632;2023-03-14T13:01:32;98850.66;;;19.85;32.77
19150;BME280;9707;49.158;8.632;2023-03-14T13:04:03;98860.47;;;19.86;33.34
19150;BME280;9707;49.158;8.632;2023-03-14T13:06:56;98865.13;;;19.93;34.26
19150;BME280;9707;49.158;8.632;2023-03-14T13:11:50;98869.84;;;20.09;33.33
19150;BME280;9707;49.158;8.632;2023-03-14T13:14:16;98873.63;;;20.16;34.01
19150;BME280;9707;49.158;8.632;2023-03-14T13:16:43;98890.78;;;20.24;31.24
19150;BME280;9707;49.158;8.632;2023-03-14T13:19:18;98907.53;;;20.28;31.70
19150;BME280;9707;49.158;8.632;2023-03-14T13:21:45;98912.94;;;20.28;28.64
19150;BME280;9707;49.158;8.632;2023-03-14T13:24:24;98925.78;;;20.26;28.02
19150;BME280;9707;49.158;8.632;2023-03-14T13:26:52;98932.78;;;20.19;27.54
19150;BME280;9707;49.158;8.632;2023-03-14T13:29:23;98937.78;;;20.14;26.84
19150;BME280;9707;49.158;8.632;2023-03-14T13:31:51;98939.09;;;20.10;27.14
19150;BME280;9707;49.158;8.632;2023-03-14T13:34:17;98957.19;;;20.09;26.53
19150;BME280;9707;49.158;8.632;2023-03-14T13:36:43;98954.63;;;20.08;26.33
19150;BME280;9707;49.158;8.632;2023-03-14T13:39:20;98945.81;;;20.06;25.43
19150;BME280;9707;49.158;8.632;2023-03-14T13:41:49;98978.53;;;20.03;25.83
19150;BME280;9707;49.158;8.632;2023-03-14T13:44:36;98979.84;;;19.99;25.52
19150;BME280;9707;49.158;8.632;2023-03-14T13:47:04;98975.72;;;19.95;25.37
19150;BME280;9707;49.158;8.632;2023-03-14T13:49:32;98991.94;;;19.95;25.33
19150;BME280;9707;49.158;8.632;2023-03-14T13:52:01;98995.81;;;19.92;25.83
19150;BME280;9707;49.158;8.632;2023-03-14T13:54:27;99016.28;;;19.95;25.43
19150;BME280;9707;49.158;8.632;2023-03-14T13:57:05;99013.56;;;19.95;25.83
19150;BME280;9707;49.158;8.632;2023-03-14T13:59:33;99017.13;;;19.95;25.41
19150;BME280;9707;49.158;8.632;2023-03-14T14:02:00;99025.25;;;19.95;25.99
19150;BME280;9707;49.158;8.632;2023-03-14T14:04:28;99036.91;;;19.96;26.05
19150;BME280;9707;49.158;8.632;2023-03-14T14:06:58;99033.22;;;19.97;26.35
19150;BME280;9707;49.158;8.632;2023-03-14T14:09:29;99043.69;;;20.00;25.74
19150;BME280;9707;49.158;8.632;2023-03-14T14:11:56;99053.69;;;19.99;25.35
19150;BME280;9707;49.158;8.632;2023-03-14T14:14:28;99062.63;;;20.00;25.50